createdAt,value
2017-12-24T00:00:38.082Z,64.45
2017-12-24T00:03:06.434Z,54.05
2017-12-24T00:05:34.768Z,48.97
2017-12-24T00:08:03.110Z,47.20
2017-12-24T00:10:31.432Z,50.15
2017-12-24T00:12:59.817Z,49.10
2017-12-24T00:15:28.141Z,57.85
2017-12-24T00:17:56.486Z,51.03
2017-12-24T00:20:24.815Z,52.40
2017-12-24T00:22:53.139Z,48.08
2017-12-24T00:25:21.486Z,49.72
2017-12-24T00:27:49.813Z,52.13
2017-12-24T00:30:18.158Z,48.78
2017-12-24T00:32:46.491Z,51.97
2017-12-24T00:35:14.860Z,42.10
2017-12-24T00:37:43.178Z,49.83
2017-12-24T00:40:11.527Z,51.20
2017-12-24T00:42:39.850Z,52.53
2017-12-24T00:45:08.194Z,55.55
2017-12-24T00:47:36.527Z,53.13
2017-12-24T00:50:04.871Z,62.17
2017-12-24T00:52:33.202Z,53.95
2017-12-24T00:55:01.545Z,59.20
2017-12-24T00:57:29.878Z,55.17
2017-12-24T00:59:58.233Z,50.15
2017-12-24T01:02:26.558Z,50.78
2017-12-24T01:04:54.911Z,58.97
2017-12-24T01:07:23.234Z,64.97
2017-12-24T01:09:51.590Z,60.20
2017-12-24T01:12:19.979Z,62.20
2017-12-24T01:14:48.326Z,63.80
2017-12-24T01:17:16.718Z,60.75
2017-12-24T01:19:45.067Z,57.40
2017-12-24T01:22:13.394Z,57.58
2017-12-24T01:24:41.750Z,62.95
2017-12-24T01:27:10.073Z,63.10
2017-12-24T01:29:38.426Z,50.75
2017-12-24T01:32:06.747Z,58.87
2017-12-24T01:34:35.099Z,54.17
2017-12-24T01:37:03.422Z,47.22
2017-12-24T01:39:31.765Z,58.25
2017-12-24T01:42:00.103Z,55.72
2017-12-24T01:44:28.445Z,65.05
2017-12-24T01:46:56.783Z,48.33
2017-12-24T01:49:25.126Z,47.88
2017-12-24T01:51:53.454Z,56.20
2017-12-24T01:54:21.812Z,51.40
2017-12-24T01:56:50.146Z,53.38
2017-12-24T01:59:18.511Z,54.17
2017-12-24T02:01:46.827Z,45.70
2017-12-24T02:04:15.178Z,47.75
2017-12-24T02:06:43.502Z,57.25
2017-12-24T02:09:11.855Z,45.88
2017-12-24T02:11:40.186Z,49.22
2017-12-24T02:14:08.554Z,46.22
2017-12-24T02:16:36.873Z,57.97
2017-12-24T02:19:05.226Z,48.33
2017-12-24T02:21:33.563Z,49.20
2017-12-24T02:24:01.894Z,45.55
2017-12-24T02:26:30.275Z,48.30
2017-12-24T02:28:58.606Z,47.58
2017-12-24T02:31:26.963Z,51.83
2017-12-24T02:33:55.290Z,52.60
2017-12-24T02:36:23.638Z,54.92
2017-12-24T02:38:51.966Z,52.10
2017-12-24T02:41:20.314Z,54.15
2017-12-24T02:43:48.685Z,50.50
2017-12-24T02:46:17.031Z,55.80
2017-12-24T02:48:45.359Z,58.72
2017-12-24T02:51:13.719Z,60.12
2017-12-24T02:53:42.050Z,57.40
2017-12-24T02:56:10.393Z,63.42
2017-12-24T02:58:38.726Z,58.38
2017-12-24T03:01:07.078Z,56.35
2017-12-24T03:03:35.401Z,53.25
2017-12-24T03:06:03.750Z,61.55
2017-12-24T03:08:32.130Z,57.55
2017-12-24T03:11:00.485Z,61.85
2017-12-24T03:13:28.813Z,66.70
2017-12-24T03:15:57.167Z,66.60
2017-12-24T03:18:25.502Z,58.97
2017-12-24T03:20:53.845Z,64.47
2017-12-24T03:23:22.174Z,58.70
2017-12-24T03:25:50.547Z,65.72
2017-12-24T03:28:18.877Z,66.70
2017-12-24T03:30:47.227Z,63.92
2017-12-24T03:33:15.561Z,66.82
2017-12-24T03:35:43.909Z,63.45
2017-12-24T03:38:12.238Z,64.70
2017-12-24T03:40:40.599Z,65.60
2017-12-24T03:43:08.935Z,65.90
2017-12-24T03:45:37.285Z,65.28
2017-12-24T03:48:05.617Z,64.80
2017-12-24T03:50:33.974Z,61.83
2017-12-24T03:53:02.306Z,69.60
2017-12-24T03:55:30.654Z,64.22
2017-12-24T03:57:59.114Z,67.37
2017-12-24T04:00:27.459Z,75.05
2017-12-24T04:02:55.823Z,63.30
2017-12-24T04:05:24.184Z,63.95
2017-12-24T04:07:52.509Z,68.82
2017-12-24T04:10:20.862Z,61.95
2017-12-24T04:12:49.194Z,64.30
2017-12-24T04:15:17.542Z,65.78
2017-12-24T04:17:45.870Z,59.45
2017-12-24T04:20:14.227Z,57.45
2017-12-24T04:22:42.558Z,53.60
2017-12-24T04:25:10.890Z,60.42
2017-12-24T04:27:39.246Z,57.42
2017-12-24T04:30:07.573Z,52.45
2017-12-24T04:32:35.939Z,51.88
2017-12-24T04:35:04.270Z,57.50
2017-12-24T04:37:32.617Z,57.15
2017-12-24T04:40:00.948Z,68.97
2017-12-24T04:42:29.302Z,61.55
2017-12-24T04:44:57.629Z,50.67
2017-12-24T04:47:25.978Z,55.72
2017-12-24T04:49:54.308Z,57.20
2017-12-24T04:52:22.654Z,57.08
2017-12-24T04:54:50.979Z,53.60
2017-12-24T04:57:19.326Z,58.42
2017-12-24T04:59:47.694Z,51.13
2017-12-24T05:02:16.045Z,52.95
2017-12-24T05:04:44.381Z,55.58
2017-12-24T05:07:12.734Z,51.10
2017-12-24T05:09:41.080Z,51.00
2017-12-24T05:12:09.437Z,58.78
2017-12-24T05:14:37.797Z,48.55
2017-12-24T05:17:06.150Z,51.80
2017-12-24T05:19:34.478Z,51.15
2017-12-24T05:22:02.843Z,60.17
2017-12-24T05:24:31.174Z,52.50
2017-12-24T05:26:59.526Z,53.53
2017-12-24T05:29:27.857Z,50.85
2017-12-24T05:31:56.211Z,47.20
2017-12-24T05:34:24.538Z,58.22
2017-12-24T05:36:52.885Z,52.40
2017-12-24T05:39:21.213Z,48.17
2017-12-24T05:41:49.563Z,51.75
2017-12-24T05:44:17.894Z,49.00
2017-12-24T05:46:46.247Z,55.40
2017-12-24T05:49:14.582Z,44.45
2017-12-24T05:51:42.945Z,52.13
2017-12-24T05:54:11.274Z,51.10
2017-12-24T05:56:39.635Z,53.95
2017-12-24T05:59:07.987Z,48.45
2017-12-24T06:01:36.333Z,50.10
2017-12-24T06:04:04.666Z,50.08
2017-12-24T06:06:33.017Z,48.92
2017-12-24T06:09:01.359Z,49.85
2017-12-24T06:11:29.751Z,54.60
2017-12-24T06:13:58.078Z,52.72
2017-12-24T06:16:26.434Z,52.60
2017-12-24T06:18:54.774Z,57.97
2017-12-24T06:21:23.139Z,54.58
2017-12-24T06:23:51.474Z,63.90
2017-12-24T06:26:19.805Z,51.53
2017-12-24T06:28:48.161Z,60.97
2017-12-24T06:31:16.618Z,61.83
2017-12-24T06:33:44.974Z,63.03
2017-12-24T06:36:13.306Z,63.40
2017-12-24T06:38:41.670Z,60.63
2017-12-24T06:41:10.004Z,65.87
2017-12-24T06:43:38.362Z,54.97
2017-12-24T06:46:06.696Z,60.75
2017-12-24T06:48:35.062Z,60.20
2017-12-24T06:51:03.403Z,59.85
2017-12-24T06:53:31.754Z,60.95
2017-12-24T06:56:00.082Z,57.33
2017-12-24T06:58:28.458Z,48.30
2017-12-24T07:00:56.793Z,49.90
2017-12-24T07:03:25.147Z,47.88
2017-12-24T07:05:53.485Z,53.10
2017-12-24T07:08:21.841Z,48.70
2017-12-24T07:10:50.169Z,52.28
2017-12-24T07:13:18.530Z,56.13
2017-12-24T07:15:46.864Z,41.97
2017-12-24T07:18:15.214Z,44.30
2017-12-24T07:20:43.552Z,45.53
2017-12-24T07:23:11.898Z,40.67
2017-12-24T07:25:40.225Z,52.97
2017-12-24T07:28:08.578Z,54.92
2017-12-24T07:30:36.905Z,43.87
2017-12-24T07:33:05.257Z,47.45
2017-12-24T07:35:33.589Z,47.67
2017-12-24T07:38:01.943Z,63.67
2017-12-24T07:40:30.263Z,53.20
2017-12-24T07:42:58.617Z,48.77
2017-12-24T07:45:26.942Z,45.72
2017-12-24T07:47:55.294Z,43.97
2017-12-24T07:50:23.622Z,46.80
2017-12-24T07:52:51.967Z,53.35
2017-12-24T07:55:20.295Z,49.40
2017-12-24T07:57:48.650Z,52.97
2017-12-24T08:00:16.982Z,46.37
2017-12-24T08:02:45.330Z,54.67
2017-12-24T08:05:13.654Z,52.00
2017-12-24T08:07:42.007Z,51.27
2017-12-24T08:10:10.344Z,48.38
2017-12-24T08:12:38.690Z,44.63
2017-12-24T08:15:07.099Z,53.70
2017-12-24T08:17:36.099Z,45.70
2017-12-24T08:20:04.426Z,51.83
2017-12-24T08:22:32.778Z,45.13
2017-12-24T08:25:01.108Z,47.80
2017-12-24T08:27:29.433Z,48.30
2017-12-24T08:29:57.793Z,43.97
2017-12-24T08:32:26.123Z,48.05
2017-12-24T08:34:54.470Z,49.27
2017-12-24T08:37:23.706Z,45.80
2017-12-24T08:39:52.057Z,45.63
2017-12-24T08:42:20.432Z,50.77
2017-12-24T08:44:48.737Z,43.17
2017-12-24T08:47:17.251Z,48.10
2017-12-24T08:49:45.665Z,46.15
2017-12-24T08:52:14.042Z,48.83
2017-12-24T08:54:42.923Z,46.07
2017-12-24T08:57:11.384Z,49.77
2017-12-24T08:59:39.742Z,41.92
2017-12-24T09:02:08.082Z,43.90
2017-12-24T09:04:36.500Z,52.87
2017-12-24T09:07:04.815Z,46.40
2017-12-24T09:09:33.180Z,52.63
2017-12-24T09:12:01.529Z,42.30
2017-12-24T09:14:30.006Z,52.47
2017-12-24T09:16:58.349Z,45.47
2017-12-24T09:19:26.796Z,45.47
2017-12-24T09:21:55.158Z,36.70
2017-12-24T09:24:23.493Z,32.70
2017-12-24T09:26:51.851Z,43.07
2017-12-24T09:29:20.216Z,85.12
2017-12-24T09:31:48.587Z,37.77
2017-12-24T09:34:18.542Z,41.95
2017-12-24T09:36:46.931Z,44.15
2017-12-24T09:39:15.269Z,30.40
2017-12-24T09:41:44.192Z,36.30
2017-12-24T09:44:12.534Z,30.13
2017-12-24T09:46:40.875Z,35.95
2017-12-24T09:49:09.269Z,28.62
2017-12-24T09:51:37.653Z,32.00
2017-12-24T09:54:07.013Z,34.66
2017-12-24T09:56:35.354Z,33.43
2017-12-24T09:59:03.711Z,32.30
2017-12-24T10:01:32.055Z,26.55
2017-12-24T10:04:00.411Z,48.00
2017-12-24T10:06:28.752Z,31.33
2017-12-24T10:08:57.115Z,29.42
2017-12-24T10:11:25.451Z,26.70
2017-12-24T10:13:54.745Z,31.62
2017-12-24T10:16:23.082Z,24.70
2017-12-24T10:18:51.514Z,27.77
2017-12-24T10:21:20.174Z,22.77
2017-12-24T10:23:48.711Z,26.80
2017-12-24T10:26:17.061Z,25.27
2017-12-24T10:28:45.916Z,24.70
2017-12-24T10:31:15.318Z,21.92
2017-12-24T10:33:43.776Z,25.30
2017-12-24T10:36:13.106Z,22.95
2017-12-24T10:38:41.440Z,24.67
2017-12-24T10:41:09.786Z,30.17
2017-12-24T10:43:38.118Z,22.48
2017-12-24T10:46:06.496Z,21.40
2017-12-24T10:48:34.833Z,25.20
2017-12-24T10:51:03.178Z,17.13
2017-12-24T10:53:31.506Z,21.70
2017-12-24T10:56:00.843Z,28.42
2017-12-24T10:58:29.178Z,24.67
2017-12-24T11:00:57.538Z,24.20
2017-12-24T11:03:25.882Z,22.80
2017-12-24T11:05:55.639Z,22.92
2017-12-24T11:08:24.415Z,21.27
2017-12-24T11:10:52.766Z,29.70
2017-12-24T11:13:21.928Z,23.97
2017-12-24T11:15:50.330Z,26.08
2017-12-24T11:18:18.677Z,25.50
2017-12-24T11:20:47.035Z,27.97
2017-12-24T11:23:15.370Z,25.15
2017-12-24T11:25:44.736Z,29.13
2017-12-24T11:28:13.064Z,23.63
2017-12-24T11:30:41.414Z,24.70
2017-12-24T11:33:09.747Z,27.40
2017-12-24T11:35:39.102Z,21.63
2017-12-24T11:38:07.538Z,20.07
2017-12-24T11:40:36.329Z,18.57
2017-12-24T11:43:04.822Z,21.33
2017-12-24T11:45:33.202Z,20.17
2017-12-24T11:48:01.534Z,21.42
2017-12-24T11:50:29.932Z,19.02
2017-12-24T11:52:58.251Z,28.55
2017-12-24T11:55:26.615Z,22.83
2017-12-24T11:57:55.478Z,20.80
2017-12-24T12:00:23.834Z,19.40
2017-12-24T12:02:52.545Z,18.97
2017-12-24T12:05:21.194Z,23.23
2017-12-24T12:07:49.526Z,16.80
2017-12-24T12:10:17.883Z,18.90
2017-12-24T12:12:46.207Z,18.97
2017-12-24T12:15:15.263Z,24.45
2017-12-24T12:17:43.595Z,27.30
2017-12-24T12:20:11.974Z,17.90
2017-12-24T12:22:40.311Z,21.77
2017-12-24T12:25:08.670Z,18.80
2017-12-24T12:27:36.998Z,17.92
2017-12-24T12:30:05.350Z,20.20
2017-12-24T12:32:33.675Z,17.42
2017-12-24T12:35:02.043Z,16.33
2017-12-24T12:37:30.734Z,15.93
2017-12-24T12:39:59.103Z,19.67
2017-12-24T12:42:27.434Z,17.80
2017-12-24T12:44:55.862Z,18.97
2017-12-24T12:47:24.215Z,16.67
2017-12-24T12:49:52.566Z,19.30
2017-12-24T12:52:20.946Z,18.40
2017-12-24T12:54:49.270Z,18.07
2017-12-24T12:57:17.663Z,18.97
2017-12-24T12:59:46.000Z,19.27
2017-12-24T13:02:14.375Z,22.17
2017-12-24T13:04:42.690Z,17.93
2017-12-24T13:07:11.050Z,24.83
2017-12-24T13:09:39.457Z,27.80
2017-12-24T13:12:07.803Z,18.70
2017-12-24T13:14:36.122Z,14.53
2017-12-24T13:17:04.490Z,14.13
2017-12-24T13:19:32.839Z,15.60
2017-12-24T13:22:01.186Z,15.73
2017-12-24T13:24:29.515Z,14.68
2017-12-24T13:26:57.882Z,13.23
2017-12-24T13:29:26.218Z,18.47
2017-12-24T13:31:54.557Z,14.10
2017-12-24T13:34:22.889Z,18.00
2017-12-24T13:36:51.230Z,14.13
2017-12-24T13:39:19.553Z,12.68
2017-12-24T13:41:47.898Z,11.90
2017-12-24T13:44:16.227Z,12.43
2017-12-24T13:46:44.578Z,16.73
2017-12-24T13:49:12.893Z,14.33
2017-12-24T13:51:42.070Z,13.17
2017-12-24T13:54:10.453Z,11.07
2017-12-24T13:56:38.734Z,13.43
2017-12-24T13:59:07.063Z,13.25
2017-12-24T14:01:35.410Z,13.17
2017-12-24T14:04:03.730Z,15.38
2017-12-24T14:06:32.072Z,13.33
2017-12-24T14:09:00.402Z,91.73
2017-12-24T14:11:28.887Z,12.10
2017-12-24T14:13:57.273Z,16.63
2017-12-24T14:16:25.610Z,12.57
2017-12-24T14:18:53.939Z,10.57
2017-12-24T14:21:22.287Z,12.37
2017-12-24T14:23:50.606Z,12.00
2017-12-24T14:26:18.955Z,13.10
2017-12-24T14:28:47.278Z,10.53
2017-12-24T14:31:16.523Z,11.00
2017-12-24T14:33:44.842Z,9.57
2017-12-24T14:36:14.111Z,11.60
2017-12-24T14:38:42.440Z,10.75
2017-12-24T14:41:10.782Z,10.43
2017-12-24T14:43:44.461Z,12.60
2017-12-24T14:46:13.937Z,11.30
2017-12-24T14:48:42.359Z,13.90
2017-12-24T14:51:10.771Z,10.40
2017-12-24T14:53:39.095Z,12.90
2017-12-24T14:56:07.426Z,13.32
2017-12-24T14:58:35.771Z,13.53
2017-12-24T15:01:04.102Z,11.83
2017-12-24T15:03:32.450Z,12.00
2017-12-24T15:06:00.779Z,14.93
2017-12-24T15:08:29.131Z,11.40
2017-12-24T15:10:57.454Z,17.75
2017-12-24T15:13:25.810Z,18.83
2017-12-24T15:15:54.126Z,12.73
2017-12-24T15:18:22.476Z,14.47
2017-12-24T15:20:50.806Z,19.47
2017-12-24T15:23:19.146Z,19.27
2017-12-24T15:25:48.391Z,20.70
2017-12-24T15:28:16.742Z,15.87
2017-12-24T15:30:45.070Z,20.80
2017-12-24T15:33:13.434Z,18.47
2017-12-24T15:35:42.730Z,28.48
2017-12-24T15:38:11.086Z,28.27
2017-12-24T15:40:39.430Z,29.40
2017-12-24T15:43:07.781Z,28.60
2017-12-24T15:45:36.126Z,25.98
2017-12-24T15:48:04.483Z,25.60
2017-12-24T15:50:32.822Z,24.08
2017-12-24T15:53:01.171Z,35.30
2017-12-24T15:55:29.510Z,32.33
2017-12-24T15:57:57.861Z,34.23
2017-12-24T16:00:26.181Z,29.30
2017-12-24T16:02:54.538Z,26.42
2017-12-24T16:05:22.863Z,29.33
2017-12-24T16:07:51.210Z,32.97
2017-12-24T16:10:19.542Z,28.02
2017-12-24T16:12:47.898Z,29.20
2017-12-24T16:15:17.433Z,33.30
2017-12-24T16:17:45.791Z,49.03
2017-12-24T16:20:14.109Z,33.33
2017-12-24T16:22:42.466Z,36.60
2017-12-24T16:25:10.786Z,36.45
2017-12-24T16:27:39.134Z,35.43
2017-12-24T16:30:07.467Z,38.55
2017-12-24T16:32:35.815Z,30.00
2017-12-24T16:35:04.175Z,33.43
2017-12-24T16:37:32.537Z,45.60
2017-12-24T16:40:00.869Z,35.03
2017-12-24T16:42:29.242Z,40.10
2017-12-24T16:44:57.638Z,34.10
2017-12-24T16:47:25.978Z,38.40
2017-12-24T16:49:54.319Z,33.93
2017-12-24T16:52:22.675Z,33.57
2017-12-24T16:54:51.008Z,33.60
2017-12-24T16:57:19.362Z,47.58
2017-12-24T16:59:47.729Z,41.77
2017-12-24T17:02:16.054Z,37.30
2017-12-24T17:04:44.421Z,33.03
2017-12-24T17:07:12.745Z,35.03
2017-12-24T17:09:41.136Z,40.85
2017-12-24T17:12:09.474Z,34.40
2017-12-24T17:14:37.827Z,39.83
2017-12-24T17:17:06.171Z,44.80
2017-12-24T17:19:34.538Z,30.50
2017-12-24T17:22:03.371Z,33.60
2017-12-24T17:24:31.727Z,32.90
2017-12-24T17:27:00.066Z,38.17
2017-12-24T17:29:28.425Z,28.73
2017-12-24T17:31:56.762Z,31.63
2017-12-24T17:34:25.119Z,32.23
2017-12-24T17:36:53.454Z,28.90
2017-12-24T17:39:21.806Z,32.10
2017-12-24T17:41:50.146Z,35.03
2017-12-24T17:44:18.498Z,30.15
2017-12-24T17:46:46.868Z,27.93
2017-12-24T17:49:15.229Z,30.97
2017-12-24T17:51:43.564Z,35.60
2017-12-24T17:54:11.918Z,31.40
2017-12-24T17:56:40.263Z,36.50
2017-12-24T17:59:08.614Z,29.07
2017-12-24T18:01:36.955Z,28.98
2017-12-24T18:04:05.305Z,30.98
2017-12-24T18:06:33.641Z,35.00
2017-12-24T18:09:02.002Z,33.08
2017-12-24T18:11:30.857Z,28.45
2017-12-24T18:13:59.218Z,33.40
2017-12-24T18:16:27.554Z,39.57
2017-12-24T18:18:55.973Z,32.22
2017-12-24T18:21:24.254Z,31.83
2017-12-24T18:23:52.607Z,25.17
2017-12-24T18:26:20.942Z,35.90
2017-12-24T18:28:49.294Z,29.33
2017-12-24T18:31:18.489Z,28.98
2017-12-24T18:33:46.841Z,33.70
2017-12-24T18:36:15.182Z,30.40
2017-12-24T18:38:43.538Z,40.67
2017-12-24T18:41:11.886Z,35.38
2017-12-24T18:43:40.242Z,34.22
2017-12-24T18:46:08.579Z,35.45
2017-12-24T18:48:36.930Z,33.80
2017-12-24T18:51:06.135Z,36.05
2017-12-24T18:53:34.487Z,32.07
2017-12-24T18:56:02.818Z,38.13
2017-12-24T18:58:31.194Z,37.53
2017-12-24T19:00:59.595Z,36.30
2017-12-24T19:03:27.930Z,37.25
2017-12-24T19:05:57.170Z,35.72
2017-12-24T19:08:25.499Z,41.73
2017-12-24T19:10:54.615Z,43.40
2017-12-24T19:13:22.966Z,38.83
2017-12-24T19:15:51.750Z,42.22
2017-12-24T19:18:20.091Z,43.00
2017-12-24T19:20:48.516Z,37.58
2017-12-24T19:23:16.841Z,42.90
2017-12-24T19:25:46.114Z,41.13
2017-12-24T19:28:14.451Z,39.40
2017-12-24T19:30:43.642Z,36.67
2017-12-24T19:33:11.977Z,49.10
2017-12-24T19:35:41.233Z,42.40
2017-12-24T19:38:09.570Z,41.87
2017-12-24T19:40:37.922Z,47.00
2017-12-24T19:43:06.275Z,37.50
2017-12-24T19:45:35.582Z,41.23
2017-12-24T19:48:03.914Z,50.03
2017-12-24T19:50:32.271Z,41.47
2017-12-24T19:53:00.606Z,41.30
2017-12-24T19:55:29.920Z,43.90
2017-12-24T19:57:58.260Z,43.77
2017-12-24T20:00:26.617Z,40.37
2017-12-24T20:02:54.945Z,40.20
2017-12-24T20:05:23.298Z,38.65
2017-12-24T20:07:51.632Z,46.77
2017-12-24T20:10:19.982Z,39.08
2017-12-24T20:12:48.328Z,41.23
2017-12-24T20:15:17.646Z,37.90
2017-12-24T20:17:45.991Z,42.47
2017-12-24T20:20:14.347Z,35.87
2017-12-24T20:22:42.699Z,35.88
2017-12-24T20:25:11.059Z,35.07
2017-12-24T20:27:39.394Z,34.17
2017-12-24T20:30:07.774Z,34.63
2017-12-24T20:32:36.092Z,39.67
2017-12-24T20:35:04.443Z,33.17
2017-12-24T20:37:32.793Z,31.85
2017-12-24T20:40:01.199Z,30.15
2017-12-24T20:42:29.486Z,28.90
2017-12-24T20:44:57.846Z,29.35
2017-12-24T20:47:26.188Z,24.97
2017-12-24T20:49:54.543Z,27.08
2017-12-24T20:52:22.877Z,33.50
2017-12-24T20:54:51.230Z,26.30
2017-12-24T20:57:19.626Z,30.02
2017-12-24T20:59:47.918Z,26.80
2017-12-24T21:02:16.250Z,26.15
2017-12-24T21:04:44.610Z,27.17
2017-12-24T21:07:12.938Z,31.17
2017-12-24T21:09:41.270Z,29.17
2017-12-24T21:12:09.635Z,24.87
2017-12-24T21:14:37.970Z,22.87
2017-12-24T21:17:06.330Z,30.03
2017-12-24T21:19:34.662Z,28.52
2017-12-24T21:22:03.010Z,23.53
2017-12-24T21:24:31.343Z,22.10
2017-12-24T21:26:59.696Z,20.90
2017-12-24T21:29:28.025Z,22.03
2017-12-24T21:31:56.486Z,18.77
2017-12-24T21:34:24.794Z,13.73
2017-12-24T21:36:53.147Z,18.27
2017-12-24T21:39:21.474Z,15.93
2017-12-24T21:41:49.826Z,15.93
2017-12-24T21:44:18.146Z,18.45
2017-12-24T21:46:46.950Z,15.87
2017-12-24T21:49:15.274Z,12.27
2017-12-24T21:51:43.613Z,17.90
2017-12-24T21:54:11.934Z,15.77
2017-12-24T21:56:40.282Z,13.40
2017-12-24T21:59:08.602Z,20.53
2017-12-24T22:01:36.949Z,20.40
2017-12-24T22:04:05.280Z,17.80
2017-12-24T22:06:33.761Z,15.05
2017-12-24T22:09:02.082Z,18.50
2017-12-24T22:11:30.434Z,20.10
2017-12-24T22:13:58.761Z,16.20
2017-12-24T22:16:27.112Z,17.80
2017-12-24T22:18:55.432Z,15.73
2017-12-24T22:21:23.774Z,17.80
2017-12-24T22:23:52.102Z,19.00
2017-12-24T22:26:21.402Z,16.70
2017-12-24T22:28:49.726Z,14.47
2017-12-24T22:31:18.074Z,17.60
2017-12-24T22:33:46.397Z,20.25
2017-12-24T22:36:14.742Z,23.43
2017-12-24T22:38:43.074Z,23.25
2017-12-24T22:41:11.435Z,14.70
2017-12-24T22:43:39.753Z,18.97
2017-12-24T22:46:08.106Z,15.13
2017-12-24T22:48:36.429Z,16.00
2017-12-24T22:51:04.770Z,16.53
2017-12-24T22:53:33.106Z,15.10
2017-12-24T22:56:01.605Z,10.77
2017-12-24T22:58:29.935Z,10.93
2017-12-24T23:00:58.305Z,12.40
2017-12-24T23:03:26.825Z,11.93
2017-12-24T23:05:56.074Z,13.10
2017-12-24T23:08:24.408Z,12.90
2017-12-24T23:10:52.749Z,11.47
2017-12-24T23:13:21.128Z,16.33
2017-12-24T23:15:49.638Z,12.07
2017-12-24T23:18:17.977Z,14.50
2017-12-24T23:20:46.302Z,12.37
2017-12-24T23:23:14.676Z,11.00
2017-12-24T23:25:43.347Z,10.70
2017-12-24T23:28:11.698Z,13.70
2017-12-24T23:30:40.018Z,10.33
2017-12-24T23:33:08.357Z,12.48
2017-12-24T23:35:36.677Z,13.03
2017-12-24T23:38:05.018Z,8.90
2017-12-24T23:40:34.081Z,15.38
2017-12-24T23:43:02.422Z,10.30
2017-12-24T23:45:31.003Z,9.80
2017-12-24T23:47:59.357Z,8.77
2017-12-24T23:50:27.797Z,9.60
2017-12-24T23:52:56.157Z,18.02
2017-12-24T23:55:24.517Z,14.37
2017-12-24T23:57:52.861Z,11.67
